Terminal Aerodrome Forecast
Issued by NWS Sterling, VA

Home | Current Version | Previous Version | Text Only | Print | Product List | Glossary On
Versions: 1 2 3 4 5 6 7 8 9 10 11 12 13 14
653
FTUS41 KLWX 240536
TAFCHO
TAF
KCHO 240536Z 2406/2506 18003KT P6SM FEW200
     FM241000 VRB03KT 3SM BR SCT200
     FM241300 19006KT P6SM SCT150
     FM241800 18012G20KT P6SM SCT250
     FM242300 18008KT P6SM SCT250
     FM250300 18006KT P6SM BKN035=

USA.gov is the U.S. government's official web portal to all federal, state and local government web resources and services.